Time;durP1;ratioP1;P1;durP2;ratioP2;P2;SDS_P1;SDS_P2;PMS_P1;PMS_P2;Temp;Humidity;BMP_temperature;BMP_pressure;BME280_temperature;BME280_humidity;BME280_pressure;Samples;Min_cycle;Max_cycle;Signal;HPM_P1;HPM_P2
2023/06/20 00:01:29;;;;;;;5.63;3.63;;;;;;;-143.84;74.45;45075.72;5089023;28;20429;-58
2023/06/20 00:03:56;;;;;;;3.87;3.57;;;;;;;-143.84;74.06;45113.81;5089019;28;21211;-59
2023/06/20 00:06:24;;;;;;;4.57;3.70;;;;;;;-143.84;73.93;45098.56;5089306;28;20497;-59
2023/06/20 00:08:51;;;;;;;4.80;3.80;;;;;;;-143.84;73.57;45100.47;5088914;28;20507;-59
2023/06/20 00:11:18;;;;;;;5.70;3.67;;;;;;;-143.84;73.62;45110.00;5088518;28;20549;-59
2023/06/20 00:13:45;;;;;;;4.27;4.07;;;;;;;-143.84;73.78;45085.25;5088572;28;20476;-58
2023/06/20 00:16:13;;;;;;;3.90;3.60;;;;;;;-143.84;73.83;45098.56;5088774;28;20488;-58
2023/06/20 00:18:40;;;;;;;3.50;3.30;;;;;;;-143.84;74.18;45129.03;5088640;28;20496;-58
2023/06/20 00:21:07;;;;;;;4.10;3.80;;;;;;;-143.84;74.45;45081.44;5088618;28;20439;-58
2023/06/20 00:23:35;;;;;;;4.10;3.80;;;;;;;-143.84;74.58;45094.78;5088887;28;20444;-58
2023/06/20 00:26:02;;;;;;;5.87;3.60;;;;;;;-143.84;74.54;45075.72;5089223;28;20447;-58
2023/06/20 00:28:30;;;;;;;3.47;3.27;;;;;;;-143.84;74.67;45106.19;5089069;28;20494;-59
2023/06/20 00:30:57;;;;;;;4.10;3.80;;;;;;;-143.84;74.58;45089.06;5088791;28;20494;-58
2023/06/20 00:33:24;;;;;;;3.67;3.47;;;;;;;-143.84;74.65;45092.88;5088307;28;21185;-58
2023/06/20 00:35:51;;;;;;;4.90;3.73;;;;;;;-143.84;74.67;45125.22;5088798;28;20440;-58
2023/06/20 00:38:18;;;;;;;5.93;3.80;;;;;;;-143.84;74.93;45096.66;5089113;28;20508;-58
2023/06/20 00:40:49;;;;;;;3.83;3.60;;;;;;;-143.84;74.64;45079.53;5088974;28;20497;-58
2023/06/20 00:43:16;;;;;;;4.30;4.00;;;;;;;-143.84;75.11;45111.91;5089046;28;20456;-58
2023/06/20 00:45:43;;;;;;;4.50;4.17;;;;;;;-143.84;74.97;45090.97;5088716;28;20497;-58
2023/06/20 00:48:10;;;;;;;4.63;4.30;;;;;;;-143.84;75.05;45110.00;5089127;28;20489;-58
2023/06/20 00:50:37;;;;;;;3.87;3.43;;;;;;;-143.84;75.07;45092.88;5089024;28;20440;-59
2023/06/20 00:53:06;;;;;;;8.43;3.57;;;;;;;-143.84;75.07;45100.47;5089161;28;20538;-59
2023/06/20 00:55:34;;;;;;;4.47;4.10;;;;;;;-143.84;75.38;45089.06;5089050;28;20444;-59
2023/06/20 00:58:04;;;;;;;6.93;4.00;;;;;;;-143.84;75.34;45083.34;5088651;28;20440;-59
2023/06/20 01:00:33;;;;;;;4.17;3.83;;;;;;;-143.84;75.64;45085.25;5088538;28;21014;-58
2023/06/20 01:03:02;;;;;;;4.00;3.70;;;;;;;-143.84;75.58;45113.81;5088418;28;20523;-58
2023/06/20 01:05:31;;;;;;;5.47;4.80;;;;;;;-143.84;75.78;45096.66;5088512;28;20437;-59
2023/06/20 01:08:04;;;;;;;4.90;3.60;;;;;;;-143.84;75.64;45094.78;5088672;28;20501;-59
2023/06/20 01:10:44;;;;;;;9.30;3.40;;;;;;;-143.84;76.06;45123.34;5088875;28;21023;-59
2023/06/20 01:13:22;;;;;;;3.90;3.70;;;;;;;-143.84;76.18;45085.25;5088699;28;20541;-58
2023/06/20 01:15:59;;;;;;;4.83;4.43;;;;;;;-143.84;76.28;45085.25;5088208;28;20541;-58
2023/06/20 01:18:37;;;;;;;3.93;3.63;;;;;;;-143.84;76.12;45096.66;5088834;28;20565;-58
2023/06/20 01:21:09;;;;;;;5.80;4.63;;;;;;;-143.84;76.17;45092.88;5088618;28;21137;-58
2023/06/20 01:23:44;;;;;;;4.03;3.73;;;;;;;-143.84;76.16;45079.53;5088514;28;20511;-58
2023/06/20 01:26:18;;;;;;;4.50;4.13;;;;;;;-143.84;76.11;45104.28;5088526;28;20462;-58
2023/06/20 01:28:50;;;;;;;13.37;5.03;;;;;;;-143.84;76.24;45110.00;5088615;28;20443;-58
2023/06/20 01:31:20;;;;;;;4.90;4.50;;;;;;;-143.84;76.27;45081.44;5088160;28;20435;-59
2023/06/20 01:33:52;;;;;;;5.17;4.70;;;;;;;-143.84;76.39;45092.88;5088167;28;20479;-58
2023/06/20 01:36:22;;;;;;;5.30;4.77;;;;;;;-143.84;76.39;45092.88;5088192;28;20444;-58
2023/06/20 01:38:58;;;;;;;8.67;4.50;;;;;;;-143.84;76.69;45079.53;5088601;28;20817;-59
2023/06/20 01:41:26;;;;;;;5.70;5.20;;;;;;;-143.84;76.76;45089.06;5088623;28;20446;-58
2023/06/20 01:43:56;;;;;;;5.43;5.03;;;;;;;-143.84;76.86;45096.66;5088166;28;20444;-58
2023/06/20 01:46:24;;;;;;;7.97;4.47;;;;;;;-143.84;76.83;45106.19;5088222;28;20855;-59
2023/06/20 01:48:54;;;;;;;4.40;4.10;;;;;;;-143.84;76.87;45096.66;5089969;28;20521;-58
2023/06/20 01:51:21;;;;;;;6.20;5.70;;;;;;;-143.84;76.83;45077.63;5092074;28;20958;-58
2023/06/20 01:53:51;;;;;;;5.10;4.67;;;;;;;-143.84;77.08;45111.91;5091955;28;20486;-59
2023/06/20 01:56:19;;;;;;;4.70;4.37;;;;;;;-143.84;77.23;45098.56;5091676;28;20507;-58
2023/06/20 01:58:49;;;;;;;5.27;4.77;;;;;;;-143.84;76.86;45090.97;5091851;28;20440;-59
2023/06/20 02:01:17;;;;;;;4.70;4.40;;;;;;;-143.84;76.78;45119.53;5091546;28;20441;-59
2023/06/20 02:03:46;;;;;;;5.17;4.77;;;;;;;-143.84;76.83;45089.06;5091346;28;20452;-58
2023/06/20 02:06:14;;;;;;;4.43;4.10;;;;;;;-143.84;76.58;45094.78;5091180;28;20454;-58
2023/06/20 02:08:42;;;;;;;5.23;4.83;;;;;;;-143.84;76.16;45111.91;5091708;28;20862;-58
2023/06/20 02:11:11;;;;;;;4.40;4.10;;;;;;;-143.84;76.16;45100.47;5091414;28;20946;-59
2023/06/20 02:13:38;;;;;;;9.87;3.70;;;;;;;-143.84;76.01;45117.63;5091203;28;20478;-59
2023/06/20 02:16:10;;;;;;;4.57;4.20;;;;;;;-143.84;75.78;45102.38;5091189;28;20564;-58
2023/06/20 02:18:37;;;;;;;3.87;3.57;;;;;;;-143.84;75.30;45089.06;5091419;28;20509;-58
2023/06/20 02:21:07;;;;;;;6.93;4.00;;;;;;;-143.84;74.84;45085.25;5091478;28;20472;-58
2023/06/20 02:23:36;;;;;;;8.73;3.70;;;;;;;-143.84;74.36;45102.38;5091393;28;20448;-58
2023/06/20 02:26:08;;;;;;;4.80;3.87;;;;;;;-143.84;74.04;45104.28;5091333;28;20957;-58
2023/06/20 02:28:40;;;;;;;4.40;4.10;;;;;;;-143.84;73.63;45104.28;5091043;28;20450;-58
2023/06/20 02:31:11;;;;;;;3.90;3.60;;;;;;;-143.84;73.29;45098.56;5091161;28;20447;-58
2023/06/20 02:33:41;;;;;;;3.90;3.60;;;;;;;-143.84;72.89;45121.44;5090508;28;20533;-59
2023/06/20 02:36:10;;;;;;;3.37;3.13;;;;;;;-143.84;73.13;45085.25;5091027;28;20540;-59
2023/06/20 02:38:38;;;;;;;3.73;3.43;;;;;;;-143.84;72.30;45121.44;5090717;28;20442;-58
2023/06/20 02:41:05;;;;;;;3.40;3.20;;;;;;;-143.84;72.22;45087.16;5091149;28;20501;-58
2023/06/20 02:43:32;;;;;;;3.93;3.63;;;;;;;-143.84;72.13;45108.09;5090952;28;20452;-59
2023/06/20 02:46:10;;;;;;;3.33;3.13;;;;;;;-143.84;72.02;45094.78;5091075;28;21071;-58
2023/06/20 02:48:43;;;;;;;5.87;3.83;;;;;;;-143.84;71.98;45119.53;5090772;28;20876;-59
2023/06/20 02:51:17;;;;;;;4.30;3.90;;;;;;;-143.84;71.79;45110.00;5091022;28;20443;-59
2023/06/20 02:53:57;;;;;;;3.50;3.20;;;;;;;-143.84;71.75;45123.34;5090789;28;20483;-58
2023/06/20 02:56:26;;;;;;;8.53;3.33;;;;;;;-143.84;71.73;45113.81;5090796;28;20512;-59
2023/06/20 02:58:55;;;;;;;7.57;4.00;;;;;;;-143.84;71.72;45113.81;5090933;28;20876;-58
2023/06/20 03:01:26;;;;;;;4.57;3.73;;;;;;;-143.84;71.72;45098.56;5090564;28;20492;-58
2023/06/20 03:03:56;;;;;;;4.50;4.10;;;;;;;-143.84;71.87;45102.38;5090632;28;20456;-59
2023/06/20 03:06:28;;;;;;;4.17;3.77;;;;;;;-143.84;71.91;45089.06;5090739;28;20500;-58
2023/06/20 03:08:57;;;;;;;4.73;4.13;;;;;;;-143.84;72.05;45092.88;5090379;28;20530;-58
2023/06/20 03:11:24;;;;;;;4.47;4.17;;;;;;;-143.84;72.03;45110.00;5089764;28;20449;-58
2023/06/20 03:13:51;;;;;;;5.90;3.77;;;;;;;-143.84;72.19;45115.72;5090421;28;20513;-58
2023/06/20 03:16:19;;;;;;;10.90;3.77;;;;;;;-143.84;72.36;45106.19;5090143;28;20533;-58
2023/06/20 03:18:47;;;;;;;9.10;4.80;;;;;;;-143.84;72.22;45100.47;5090237;28;20884;-59
2023/06/20 03:21:14;;;;;;;5.00;4.60;;;;;;;-143.84;72.27;45115.72;5090124;28;20446;-59
2023/06/20 03:23:42;;;;;;;4.50;4.10;;;;;;;-143.84;72.08;45111.91;5090234;28;20444;-59
2023/06/20 03:26:09;;;;;;;5.20;4.60;;;;;;;-143.84;72.11;45098.56;5090040;28;20457;-58
2023/06/20 03:28:36;;;;;;;9.07;5.50;;;;;;;-143.84;72.09;45110.00;5090264;28;20439;-58
2023/06/20 03:31:03;;;;;;;5.00;4.60;;;;;;;-143.84;71.88;45094.78;5090173;28;20444;-58
2023/06/20 03:33:30;;;;;;;5.00;4.57;;;;;;;-143.84;70.72;45115.72;5090022;28;20444;-59
2023/06/20 03:36:00;;;;;;;5.57;4.30;;;;;;;-143.84;68.63;45098.56;5089959;28;21014;-59
2023/06/20 03:38:27;;;;;;;4.10;3.80;;;;;;;-143.84;64.56;45090.97;5089842;28;20466;-59
2023/06/20 03:40:54;;;;;;;4.40;4.10;;;;;;;-143.84;61.12;45050.97;5089780;28;20445;-59
2023/06/20 03:43:21;;;;;;;4.83;4.53;;;;;;;-143.84;57.72;45083.34;5089659;28;20438;-59
2023/06/20 03:45:48;;;;;;;4.97;4.10;;;;;;;-143.84;56.11;45056.69;5089737;28;20437;-59
2023/06/20 03:48:15;;;;;;;4.60;4.20;;;;;;;-143.84;54.24;45043.34;5089634;28;20943;-59
2023/06/20 03:50:42;;;;;;;4.40;4.10;;;;;;;-143.84;53.25;45050.97;5089721;28;20970;-59
2023/06/20 03:53:11;;;;;;;7.93;3.87;;;;;;;-143.84;52.18;45049.06;5089801;28;20487;-59
2023/06/20 03:55:38;;;;;;;6.37;3.93;;;;;;;-143.84;50.67;45052.88;5089309;28;20472;-59
2023/06/20 03:58:05;;;;;;;3.90;3.63;;;;;;;-143.84;49.41;45045.25;5089517;28;20818;-59
2023/06/20 04:00:32;;;;;;;4.90;3.63;;;;;;;-143.84;48.70;45010.97;5089692;28;20500;-59
2023/06/20 04:02:59;;;;;;;4.13;3.83;;;;;;;-143.84;47.67;45018.59;5080433;28;20449;-59
2023/06/20 04:05:27;;;;;;;4.70;3.40;;;;;;;-143.84;47.07;45043.34;5085664;28;20946;-59
2023/06/20 04:07:54;;;;;;;4.10;3.80;;;;;;;-143.84;46.84;45014.78;5089369;28;20461;-59
2023/06/20 04:10:23;;;;;;;3.57;3.37;;;;;;;-143.84;45.75;45012.88;5088809;28;20843;-59
2023/06/20 04:12:50;;;;;;;5.20;3.73;;;;;;;-143.84;45.53;45030.03;5088488;28;20476;-59
2023/06/20 04:15:17;;;;;;;8.80;3.57;;;;;;;-143.84;45.21;45014.78;5088943;28;20492;-59
2023/06/20 04:17:45;;;;;;;3.97;3.50;;;;;;;-143.84;44.92;44978.63;5088611;28;20493;-59
2023/06/20 04:20:13;;;;;;;3.47;3.17;;;;;;;-143.84;44.50;45028.13;5088643;28;20472;-59
2023/06/20 04:22:42;;;;;;;4.57;4.27;;;;;;;-143.84;44.22;45007.19;5088761;28;20953;-59
2023/06/20 04:25:10;;;;;;;3.80;3.50;;;;;;;-143.84;44.21;44984.31;5088369;28;20435;-59
2023/06/20 04:27:39;;;;;;;3.60;3.30;;;;;;;-143.84;43.59;44980.53;5088882;28;20454;-59
2023/06/20 04:30:08;;;;;;;3.60;3.30;;;;;;;-143.84;43.08;44999.56;5088829;28;20888;-59
2023/06/20 04:32:36;;;;;;;7.40;3.53;;;;;;;-143.84;42.96;45016.69;5088691;28;20440;-59
2023/06/20 04:35:04;;;;;;;3.67;3.33;;;;;;;-143.84;42.90;44995.75;5088645;28;21011;-59
2023/06/20 04:37:31;;;;;;;3.63;3.33;;;;;;;-143.84;42.62;44999.56;5088964;28;20482;-59
2023/06/20 04:39:58;;;;;;;3.70;3.40;;;;;;;-143.84;42.40;44982.41;5088798;28;20449;-59
2023/06/20 04:42:25;;;;;;;3.97;3.60;;;;;;;-143.84;42.38;44990.03;5088993;28;20810;-59
2023/06/20 04:44:54;;;;;;;3.73;3.40;;;;;;;-143.84;42.02;44991.94;5088427;28;20494;-59
2023/06/20 04:47:21;;;;;;;8.37;3.50;;;;;;;-143.84;42.16;45009.09;5088011;28;20480;-59
2023/06/20 04:49:48;;;;;;;4.47;4.13;;;;;;;-143.84;42.04;44999.56;5087933;28;20452;-59
2023/06/20 04:52:16;;;;;;;4.67;3.63;;;;;;;-143.84;41.77;44978.63;5088156;28;20526;-59
2023/06/20 04:54:43;;;;;;;4.73;3.40;;;;;;;-143.84;41.66;44999.56;5088834;28;20641;-59
2023/06/20 04:57:10;;;;;;;5.90;3.87;;;;;;;-143.84;42.05;44990.03;5088801;28;20481;-59
2023/06/20 04:59:38;;;;;;;6.03;3.30;;;;;;;-143.84;42.17;44976.72;5088923;28;20433;-59
2023/06/20 05:02:06;;;;;;;3.90;3.50;;;;;;;-143.84;42.32;44965.28;5089004;28;20544;-59
2023/06/20 05:04:34;;;;;;;8.50;3.90;;;;;;;-143.84;42.62;44984.31;5088696;28;20501;-59
2023/06/20 05:07:02;;;;;;;4.27;3.50;;;;;;;-143.84;42.48;44953.88;5088568;28;20439;-59
2023/06/20 05:09:29;;;;;;;4.37;3.50;;;;;;;-143.84;42.17;44974.81;5088672;28;20451;-59
2023/06/20 05:11:56;;;;;;;4.00;3.60;;;;;;;-143.84;41.71;44980.53;5088679;28;20448;-59
2023/06/20 05:14:23;;;;;;;3.80;3.50;;;;;;;-143.84;41.79;44961.47;5088094;28;20915;-59
2023/06/20 05:16:50;;;;;;;7.33;3.13;;;;;;;-143.84;42.09;44995.75;5088508;28;20897;-59
2023/06/20 05:19:19;;;;;;;5.10;4.40;;;;;;;-143.84;41.68;44963.38;5088588;28;20452;-59
2023/06/20 05:21:46;;;;;;;4.17;3.77;;;;;;;-143.84;41.17;44957.66;5085596;28;20497;-59
2023/06/20 05:24:13;;;;;;;5.50;3.97;;;;;;;-143.84;41.56;44969.09;5092652;28;20825;-59
2023/06/20 05:26:41;;;;;;;4.03;3.70;;;;;;;-143.84;41.25;44990.03;5092569;28;20797;-59
2023/06/20 05:29:08;;;;;;;3.93;3.27;;;;;;;-143.84;41.23;44961.47;5092185;28;20953;-59
2023/06/20 05:31:40;;;;;;;5.50;3.20;;;;;;;-143.84;40.56;44934.81;5092203;28;20508;-59
2023/06/20 05:34:08;;;;;;;3.57;2.90;;;;;;;-143.84;40.57;44965.28;5091721;28;20509;-59
2023/06/20 05:36:36;;;;;;;4.80;3.47;;;;;;;-143.84;40.72;44965.28;5092044;28;20681;-59
2023/06/20 05:39:04;;;;;;;5.87;3.20;;;;;;;-143.84;40.14;44932.91;5092188;28;20436;-59
2023/06/20 05:41:31;;;;;;;8.77;3.37;;;;;;;-143.84;40.02;44959.56;5092217;28;20922;-59
2023/06/20 05:43:58;;;;;;;4.17;3.23;;;;;;;-143.84;39.91;44965.28;5092299;28;20440;-59
2023/06/20 05:46:25;;;;;;;4.43;3.30;;;;;;;-143.84;39.99;44953.88;5092231;28;20455;-59
2023/06/20 05:48:52;;;;;;;3.30;3.10;;;;;;;-143.84;39.64;44925.31;5092034;28;20444;-59
2023/06/20 05:51:19;;;;;;;4.90;3.73;;;;;;;-143.84;39.12;44927.19;5092087;28;20501;-59
2023/06/20 05:53:48;;;;;;;4.20;3.83;;;;;;;-143.84;39.52;44911.97;5091813;28;20436;-59
2023/06/20 05:56:15;;;;;;;4.60;3.50;;;;;;;-143.84;39.49;44929.09;5091794;28;20513;-59
2023/06/20 05:58:42;;;;;;;5.67;3.73;;;;;;;-143.84;39.33;44906.25;5091214;28;20574;-59
2023/06/20 06:01:09;;;;;;;4.80;3.50;;;;;;;-143.84;39.10;44911.97;5091806;28;21011;-59
2023/06/20 06:03:37;;;;;;;5.83;3.50;;;;;;;-143.84;39.10;44898.66;5091564;28;20501;-59
2023/06/20 06:06:04;;;;;;;8.47;3.20;;;;;;;-143.84;38.96;44948.16;5091725;28;20436;-59
2023/06/20 06:08:33;;;;;;;3.97;3.60;;;;;;;-143.84;38.58;44917.69;5091727;28;20821;-59
2023/06/20 06:11:02;;;;;;;3.30;3.10;;;;;;;-143.84;38.60;44900.53;5091788;28;20502;-59
2023/06/20 06:13:29;;;;;;;4.00;3.70;;;;;;;-143.84;38.14;44936.72;5091955;28;20432;-59
2023/06/20 06:15:56;;;;;;;4.00;3.50;;;;;;;-143.84;38.32;44915.78;5091716;28;20540;-59
2023/06/20 06:18:23;;;;;;;3.80;3.40;;;;;;;-143.84;38.38;44931.00;5092113;28;20579;-60
2023/06/20 06:20:51;;;;;;;3.70;3.40;;;;;;;-143.84;38.49;44892.94;5091721;28;20440;-59
2023/06/20 06:23:18;;;;;;;4.53;3.20;;;;;;;-143.84;38.21;44929.09;5091596;28;20444;-59
2023/06/20 06:25:45;;;;;;;4.03;3.73;;;;;;;-143.84;37.87;44927.19;5091416;28;20436;-59
2023/06/20 06:28:14;;;;;;;3.87;3.57;;;;;;;-143.84;38.29;44915.78;5091374;28;20479;-59
2023/06/20 06:30:41;;;;;;;3.93;3.63;;;;;;;-143.84;37.53;44934.81;5091184;28;20463;-59
2023/06/20 06:33:09;;;;;;;5.00;3.17;;;;;;;-143.84;37.38;44944.34;5091298;28;20445;-59
2023/06/20 06:35:45;;;;;;;3.33;3.13;;;;;;;-143.84;37.35;44913.88;5090086;28;20488;-59
2023/06/20 06:38:13;;;;;;;3.57;3.37;;;;;;;-143.84;37.53;44942.44;5090860;28;20852;-59
2023/06/20 06:47:08;;;;;;;3.70;3.43;;;;;;;-143.84;36.95;44951.97;5091004;28;20441;-59
2023/06/20 06:49:35;;;;;;;3.03;2.70;;;;;;;-143.84;36.68;44932.91;5091065;28;20482;-59
2023/06/20 06:52:02;;;;;;;3.10;2.90;;;;;;;-143.84;35.76;44910.06;5091190;28;20505;-59
2023/06/20 06:54:30;;;;;;;3.80;2.77;;;;;;;-143.84;35.13;44925.31;5090829;28;20446;-60
2023/06/20 06:56:57;;;;;;;3.37;2.93;;;;;;;-143.84;35.82;44923.41;5090932;28;20509;-59
2023/06/20 06:59:25;;;;;;;6.73;3.60;;;;;;;-143.84;35.95;44910.06;5090778;28;20856;-59
2023/06/20 07:01:52;;;;;;;2.47;2.27;;;;;;;-143.84;35.58;44913.88;5091110;28;20786;-60
2023/06/20 07:04:19;;;;;;;2.97;2.73;;;;;;;-143.84;35.62;44932.91;5090530;28;20436;-59
2023/06/20 07:06:46;;;;;;;7.90;3.33;;;;;;;-143.84;35.01;44919.59;5090852;28;20441;-59
2023/06/20 07:09:14;;;;;;;2.93;2.73;;;;;;;-143.84;35.61;44894.84;5090680;28;20498;-59
2023/06/20 07:11:41;;;;;;;4.20;2.40;;;;;;;-143.84;35.80;44946.25;5090371;28;20451;-59
2023/06/20 07:14:08;;;;;;;6.43;3.23;;;;;;;-143.84;34.96;44934.81;5090311;28;20444;-59
2023/06/20 07:16:36;;;;;;;4.20;3.37;;;;;;;-143.84;34.99;44906.25;5089915;28;20492;-60
2023/06/20 07:19:03;;;;;;;3.03;2.83;;;;;;;-143.84;35.18;44894.84;5089930;28;20445;-59
2023/06/20 07:21:30;;;;;;;5.50;3.20;;;;;;;-143.84;35.19;44904.34;5089778;28;20436;-59
2023/06/20 07:23:57;;;;;;;8.00;3.23;;;;;;;-143.84;35.65;44915.78;5090248;28;20445;-59
2023/06/20 07:26:25;;;;;;;5.60;2.97;;;;;;;-143.84;35.82;44904.34;5090220;28;20444;-59
2023/06/20 07:28:52;;;;;;;4.37;3.10;;;;;;;-143.84;35.08;44887.22;5089930;28;20441;-59
2023/06/20 07:31:19;;;;;;;3.27;3.07;;;;;;;-143.84;34.83;44925.31;5090062;28;20436;-59
2023/06/20 07:33:48;;;;;;;2.50;2.40;;;;;;;-143.84;34.91;44911.97;5090113;28;20445;-60
2023/06/20 07:36:15;;;;;;;6.33;3.43;;;;;;;-143.84;34.71;44919.59;5089941;28;20526;-60
2023/06/20 07:38:42;;;;;;;3.00;2.57;;;;;;;-143.84;35.05;44906.25;5089892;28;20448;-59
2023/06/20 07:41:09;;;;;;;5.53;2.80;;;;;;;-143.84;35.81;44917.69;5089908;28;20486;-60
2023/06/20 07:43:37;;;;;;;3.90;3.27;;;;;;;-143.84;34.68;44919.59;5089786;28;20864;-60
2023/06/20 07:46:04;;;;;;;9.60;3.10;;;;;;;-143.84;34.20;44889.13;5088721;28;20506;-59
2023/06/20 07:48:31;;;;;;;4.53;4.13;;;;;;;-143.84;35.05;44881.50;5089633;28;20437;-60
2023/06/20 07:51:00;;;;;;;12.40;3.40;;;;;;;-143.84;34.43;44892.94;5089886;28;20467;-59
2023/06/20 07:53:27;;;;;;;5.87;3.20;;;;;;;-143.84;33.57;44898.66;5089566;28;20473;-59
2023/06/20 07:55:55;;;;;;;4.00;3.80;;;;;;;-143.84;33.91;44889.13;5088961;28;20484;-60
2023/06/20 07:58:22;;;;;;;4.27;2.90;;;;;;;-143.84;33.71;44902.44;5089632;28;20459;-59
2023/06/20 08:00:50;;;;;;;3.03;2.83;;;;;;;-143.84;34.28;44887.22;5088811;28;20440;-59
2023/06/20 08:03:21;;;;;;;2.30;2.20;;;;;;;-143.84;34.22;44889.13;5089410;28;20486;-59
2023/06/20 08:05:48;;;;;;;5.97;2.83;;;;;;;-143.84;34.53;44879.59;5089661;28;20447;-59
2023/06/20 08:08:17;;;;;;;3.63;3.23;;;;;;;-143.84;33.85;44913.88;5089459;28;20954;-59
2023/06/20 08:10:44;;;;;;;2.97;2.80;;;;;;;-143.84;34.04;44881.50;5089653;28;21271;-59
2023/06/20 08:13:11;;;;;;;5.07;3.60;;;;;;;-143.84;32.52;44896.75;5089771;28;20437;-59
2023/06/20 08:15:38;;;;;;;3.93;3.13;;;;;;;-143.84;33.60;44908.16;5089169;28;20561;-58
2023/06/20 08:18:05;;;;;;;6.43;3.43;;;;;;;-143.84;33.48;44894.84;5089382;28;20490;-59
2023/06/20 08:20:32;;;;;;;5.53;2.63;;;;;;;-143.84;32.73;44856.75;5089486;28;20482;-58
2023/06/20 08:22:59;;;;;;;2.30;2.20;;;;;;;-143.84;33.22;44896.75;5089476;28;20444;-58
2023/06/20 08:25:28;;;;;;;3.07;2.87;;;;;;;-143.84;32.89;44883.41;5089493;28;20997;-58
2023/06/20 08:27:55;;;;;;;2.57;2.30;;;;;;;-143.84;32.80;44881.50;5088950;28;20812;-58
2023/06/20 08:30:23;;;;;;;6.53;2.83;;;;;;;-143.84;33.14;44877.69;5089077;28;20502;-58
2023/06/20 08:32:50;;;;;;;2.90;2.70;;;;;;;-143.84;32.25;44877.69;5089108;28;20441;-58
2023/06/20 08:35:17;;;;;;;3.00;2.80;;;;;;;-143.84;32.81;44913.88;5088904;28;20889;-58
2023/06/20 08:37:44;;;;;;;2.50;2.30;;;;;;;-143.84;32.55;44889.13;5088830;28;20462;-58
2023/06/20 08:40:14;;;;;;;2.30;2.10;;;;;;;-143.84;32.82;44894.84;5088518;28;20886;-58
2023/06/20 08:42:44;;;;;;;2.30;2.20;;;;;;;-143.84;32.54;44923.41;5089044;28;20440;-59
2023/06/20 08:45:12;;;;;;;3.40;2.20;;;;;;;-143.84;32.66;44891.03;5088982;28;20927;-59
2023/06/20 08:47:40;;;;;;;10.50;2.87;;;;;;;-143.84;32.90;44843.44;5088744;28;20432;-59
2023/06/20 08:50:08;;;;;;;4.60;2.30;;;;;;;-143.84;32.58;44871.97;5089152;28;20455;-58
2023/06/20 08:52:46;;;;;;;2.50;2.30;;;;;;;-143.84;33.06;44887.22;5089206;28;20444;-58
2023/06/20 08:55:14;;;;;;;3.53;2.37;;;;;;;-143.84;33.13;44879.59;5088826;28;21183;-59
2023/06/20 08:57:41;;;;;;;5.23;2.70;;;;;;;-143.84;32.06;44891.03;5090315;28;20950;-59
2023/06/20 09:00:12;;;;;;;3.03;2.83;;;;;;;-143.84;33.29;44889.13;5092498;28;20436;-58
2023/06/20 09:02:39;;;;;;;4.03;2.80;;;;;;;-143.84;33.58;44879.59;5092593;28;20535;-58
2023/06/20 09:05:07;;;;;;;3.17;2.90;;;;;;;-143.84;33.57;44894.84;5093330;28;20447;-58
2023/06/20 09:07:37;;;;;;;9.60;2.90;;;;;;;-143.84;31.82;44866.28;5093041;28;20443;-58
2023/06/20 09:10:05;;;;;;;2.57;2.37;;;;;;;-143.84;32.19;44841.53;5092813;28;20914;-59
2023/06/20 09:12:46;;;;;;;2.90;2.70;;;;;;;-143.84;31.81;44866.28;5092602;28;20494;-58
2023/06/20 09:15:16;;;;;;;3.53;2.60;;;;;;;-143.84;32.23;44862.47;5092535;28;20547;-59
2023/06/20 09:17:43;;;;;;;4.23;2.43;;;;;;;-143.84;32.57;44891.03;5092051;28;20891;-58
2023/06/20 09:20:13;;;;;;;3.00;2.80;;;;;;;-143.84;32.19;44900.53;5091583;28;20455;-59
2023/06/20 09:22:41;;;;;;;5.50;2.70;;;;;;;-143.84;32.80;44862.47;5091736;28;20523;-59
2023/06/20 09:25:09;;;;;;;3.07;2.70;;;;;;;-143.84;32.48;44873.88;5092156;28;20444;-59
2023/06/20 09:27:37;;;;;;;3.70;3.00;;;;;;;-143.84;33.54;44851.03;5091907;28;20432;-58
2023/06/20 09:30:05;;;;;;;2.90;2.63;;;;;;;-143.84;32.40;44868.19;5091673;28;20494;-58
2023/06/20 09:32:39;;;;;;;2.60;2.43;;;;;;;-143.84;32.17;44854.84;5091576;28;20502;-58
2023/06/20 09:35:08;;;;;;;4.60;2.73;;;;;;;-143.84;32.31;44851.03;5092403;28;20493;-58
2023/06/20 09:37:43;;;;;;;3.47;2.30;;;;;;;-143.84;32.29;44885.31;5092259;28;20437;-58
2023/06/20 09:40:12;;;;;;;3.10;2.90;;;;;;;-143.84;32.33;44851.03;5092768;28;20439;-58
2023/06/20 09:42:40;;;;;;;2.83;2.63;;;;;;;-143.84;32.15;44845.31;5092287;28;20758;-58
2023/06/20 09:45:08;;;;;;;2.83;2.63;;;;;;;-143.84;32.50;44845.31;5092168;28;20486;-59
2023/06/20 09:47:38;;;;;;;3.03;2.73;;;;;;;-143.84;32.40;44841.53;5091953;28;20479;-58
2023/06/20 09:50:07;;;;;;;2.93;2.60;;;;;;;-143.84;31.37;44835.81;5092160;28;20499;-58
2023/06/20 09:52:40;;;;;;;2.67;2.47;;;;;;;-143.84;31.12;44839.63;5092281;28;20436;-58
2023/06/20 09:55:10;;;;;;;5.83;2.50;;;;;;;-143.84;32.00;44860.56;5092174;28;20962;-58
2023/06/20 09:57:41;;;;;;;3.70;2.80;;;;;;;-143.84;31.10;44852.94;5091670;28;20482;-58
2023/06/20 10:00:14;;;;;;;3.10;2.30;;;;;;;-143.84;30.81;44873.88;5091847;28;20494;-58
2023/06/20 10:02:45;;;;;;;3.10;2.90;;;;;;;-143.84;32.40;44877.69;5091750;28;20930;-58
2023/06/20 10:05:14;;;;;;;6.90;3.00;;;;;;;-143.84;31.41;44854.84;5091687;28;20448;-58
2023/06/20 10:07:43;;;;;;;3.43;2.93;;;;;;;-143.84;32.79;44847.22;5091692;28;20523;-58
2023/06/20 10:10:10;;;;;;;4.70;3.10;;;;;;;-143.84;32.57;44898.66;5090804;28;20498;-58
2023/06/20 10:12:39;;;;;;;5.40;3.20;;;;;;;-143.84;33.78;44892.94;5091729;28;20514;-58
2023/06/20 10:15:08;;;;;;;3.23;2.93;;;;;;;-143.84;33.97;44881.50;5091303;28;20456;-58
2023/06/20 10:17:40;;;;;;;2.70;2.60;;;;;;;-143.84;33.11;44860.56;5086247;28;20528;-58
2023/06/20 10:20:25;;;;;;;4.90;2.67;;;;;;;-143.84;33.36;44896.75;5091502;28;20444;-58
2023/06/20 10:22:52;;;;;;;5.50;3.03;;;;;;;-143.84;33.07;44900.53;5091281;28;20445;-58
2023/06/20 10:25:19;;;;;;;10.83;3.00;;;;;;;-143.84;34.59;44894.84;5091301;28;20801;-58
2023/06/20 10:27:56;;;;;;;3.30;2.77;;;;;;;-143.84;33.78;44887.22;5091070;28;20444;-58
2023/06/20 10:31:01;;;;;;;3.17;2.97;;;;;;;-143.84;34.22;44896.75;5091371;28;20829;-58
2023/06/20 10:33:29;;;;;;;3.80;3.20;;;;;;;-143.84;34.77;44885.31;5090847;28;20525;-59
2023/06/20 10:35:59;;;;;;;3.23;2.93;;;;;;;-143.84;35.05;44911.97;5091083;28;21046;-59
2023/06/20 10:38:27;;;;;;;6.23;3.20;;;;;;;-143.84;33.77;44900.53;5091610;28;20436;-59
2023/06/20 10:41:11;;;;;;;7.63;3.10;;;;;;;-143.84;34.78;44891.03;5090131;28;20510;-58
2023/06/20 10:43:53;;;;;;;5.40;3.40;;;;;;;-143.84;35.63;44925.31;5090189;28;20433;-58
2023/06/20 10:46:22;;;;;;;4.50;3.47;;;;;;;-143.84;36.05;44915.78;5088636;28;20448;-59
2023/06/20 10:48:49;;;;;;;4.23;3.23;;;;;;;-143.84;36.89;44919.59;5090128;28;20807;-59
2023/06/20 10:51:18;;;;;;;3.57;3.03;;;;;;;-143.84;37.24;44931.00;5090849;28;20440;-59
2023/06/20 10:53:45;;;;;;;3.10;2.90;;;;;;;-143.84;38.01;44927.19;5089486;28;20981;-58
2023/06/20 10:56:28;;;;;;;4.93;3.57;;;;;;;-143.84;39.06;44957.66;5090519;28;20488;-58
2023/06/20 10:58:55;;;;;;;7.80;3.80;;;;;;;-143.84;40.22;44946.25;5088248;28;20942;-59
2023/06/20 11:01:27;;;;;;;4.13;3.60;;;;;;;-143.84;41.70;44976.72;5089623;28;20521;-58
2023/06/20 11:03:55;;;;;;;6.43;3.63;;;;;;;-143.84;41.23;44955.75;5089421;28;20439;-59
2023/06/20 11:06:23;;;;;;;5.33;3.33;;;;;;;-143.84;41.54;44957.66;5088991;28;20436;-58
2023/06/20 11:08:50;;;;;;;6.83;4.50;;;;;;;-143.84;42.54;44938.63;5089496;28;20486;-58
2023/06/20 11:11:17;;;;;;;5.30;4.37;;;;;;;-143.84;41.98;44965.28;5089211;28;21007;-58
2023/06/20 11:13:45;;;;;;;13.10;4.40;;;;;;;-143.84;43.03;44955.75;5089566;28;20441;-58
2023/06/20 11:16:19;;;;;;;14.73;5.57;;;;;;;-143.84;44.94;44984.31;5089363;28;20860;-58
2023/06/20 11:18:46;;;;;;;11.30;5.27;;;;;;;-143.84;47.32;44976.72;5089805;28;20527;-59
2023/06/20 11:21:15;;;;;;;11.20;5.77;;;;;;;-143.84;49.51;44980.53;5089553;28;20450;-58
2023/06/20 11:23:44;;;;;;;9.77;6.57;;;;;;;-143.84;51.13;44965.28;5089994;28;20440;-58
2023/06/20 11:26:11;;;;;;;9.73;6.30;;;;;;;-143.84;52.17;44971.00;5090029;28;20441;-59
2023/06/20 11:28:39;;;;;;;25.67;9.83;;;;;;;-143.84;61.77;44972.91;5090271;28;20506;-58
2023/06/20 11:31:11;;;;;;;23.83;10.70;;;;;;;-143.84;66.56;44995.75;5090020;28;20500;-59